Time;durP1;ratioP1;P1;durP2;ratioP2;P2;SDS_P1;SDS_P2;PMS_P1;PMS_P2;Temp;Humidity;BMP_temperature;BMP_pressure;BME280_temperature;BME280_humidity;BME280_pressure;Samples;Min_cycle;Max_cycle;Signal;HPM_P1;HPM_P2
2022/05/09 00:01:43;;;;;;;15.00;6.82;;;;;;;12.04;72.56;102298.34;5077346;28;20052;-74
2022/05/09 00:04:10;;;;;;;10.75;3.88;;;;;;;12.00;72.24;102297.50;5082015;28;20505;-73
2022/05/09 00:06:36;;;;;;;13.13;5.25;;;;;;;11.96;71.88;102293.84;5080529;28;20056;-73
2022/05/09 00:09:04;;;;;;;12.07;4.38;;;;;;;11.94;72.44;102297.00;5081405;28;20075;-74
2022/05/09 00:11:31;;;;;;;13.27;4.28;;;;;;;11.89;72.75;102290.97;5084206;28;20048;-74
2022/05/09 00:13:58;;;;;;;15.48;4.78;;;;;;;11.86;72.10;102298.03;5078446;28;20044;-73
2022/05/09 00:16:27;;;;;;;11.85;4.25;;;;;;;11.86;72.92;102295.28;5077957;28;20045;-75
2022/05/09 00:18:53;;;;;;;14.57;4.72;;;;;;;11.84;74.35;102299.56;5075749;28;21228;-73
2022/05/09 00:21:20;;;;;;;13.25;4.15;;;;;;;11.80;74.27;102293.97;5084090;28;20056;-74
2022/05/09 00:23:47;;;;;;;11.93;4.93;;;;;;;11.78;74.88;102292.75;5082842;28;20072;-73
2022/05/09 00:26:13;;;;;;;11.90;3.75;;;;;;;11.75;74.57;102294.25;5067752;28;20048;-75
2022/05/09 00:28:40;;;;;;;11.07;4.50;;;;;;;11.73;74.99;102298.56;5071105;28;20052;-73
2022/05/09 00:31:06;;;;;;;9.40;4.00;;;;;;;11.70;75.08;102293.75;5065862;28;20377;-73
2022/05/09 00:33:33;;;;;;;13.63;4.18;;;;;;;11.67;75.47;102302.81;5072047;28;20055;-74
2022/05/09 00:36:00;;;;;;;12.23;4.25;;;;;;;11.62;76.56;102294.78;5072687;28;20139;-75
2022/05/09 00:38:28;;;;;;;11.80;4.57;;;;;;;11.63;76.88;102296.38;5082500;28;20057;-73
2022/05/09 00:43:40;;;;;;;13.60;4.28;;;;;;;11.59;76.15;102296.31;5082147;28;20066;-73
2022/05/09 00:46:08;;;;;;;12.80;3.92;;;;;;;11.58;77.24;102296.66;5082443;28;20105;-73
2022/05/09 00:48:36;;;;;;;12.40;4.00;;;;;;;11.58;76.67;102288.34;5074146;28;20052;-74
2022/05/09 00:51:04;;;;;;;11.40;3.83;;;;;;;11.56;76.89;102296.22;5077491;28;20048;-74
2022/05/09 00:53:32;;;;;;;12.68;4.15;;;;;;;11.54;76.76;102293.81;5065466;28;20454;-74
2022/05/09 00:56:02;;;;;;;13.32;5.22;;;;;;;11.52;77.43;102292.56;5072778;28;20486;-73
2022/05/09 00:58:36;;;;;;;12.80;4.15;;;;;;;11.46;75.52;102294.84;5082273;28;20134;-73
2022/05/09 01:01:04;;;;;;;16.23;5.13;;;;;;;11.43;77.30;102292.00;5075831;28;20151;-73
2022/05/09 01:03:42;;;;;;;17.48;4.25;;;;;;;11.42;76.58;102282.88;5074904;28;20070;-74
2022/05/09 01:06:09;;;;;;;13.20;4.65;;;;;;;11.41;77.62;102283.25;5070920;28;20049;-74
2022/05/09 01:08:36;;;;;;;13.10;4.30;;;;;;;11.38;76.61;102276.47;5083610;28;20113;-73
2022/05/09 01:11:09;;;;;;;11.90;4.00;;;;;;;11.39;77.27;102278.06;5087885;28;20048;-73
2022/05/09 01:13:43;;;;;;;15.30;4.35;;;;;;;11.36;77.40;102273.25;5082465;28;20121;-74
2022/05/09 01:16:11;;;;;;;14.02;4.68;;;;;;;11.36;77.22;102276.03;5080257;28;20040;-73
2022/05/09 01:18:38;;;;;;;17.00;4.72;;;;;;;11.31;77.01;102272.75;5076933;28;20492;-74
2022/05/09 01:21:30;;;;;;;11.93;4.78;;;;;;;11.30;77.93;102282.25;5080486;28;20044;-74
2022/05/09 01:23:57;;;;;;;15.40;4.65;;;;;;;11.28;77.01;102284.56;5087354;28;20064;-74
2022/05/09 01:26:24;;;;;;;12.30;4.57;;;;;;;11.25;78.34;102268.66;5086042;28;20044;-75
2022/05/09 01:28:51;;;;;;;10.13;4.13;;;;;;;11.26;76.94;102270.25;5076286;28;20075;-74
2022/05/09 01:31:18;;;;;;;13.68;4.32;;;;;;;11.23;77.98;102265.44;5070193;28;20063;-75
2022/05/09 01:33:50;;;;;;;16.00;4.28;;;;;;;11.12;78.11;102267.19;5083651;28;20048;-74
2022/05/09 01:36:21;;;;;;;17.08;4.43;;;;;;;11.09;79.11;102270.69;5081547;28;20051;-74
2022/05/09 01:38:56;;;;;;;13.07;4.85;;;;;;;11.06;79.59;102263.09;5082848;28;20131;-74
2022/05/09 01:41:24;;;;;;;13.95;4.53;;;;;;;11.06;79.54;102255.59;5070437;28;20508;-74
2022/05/09 01:43:55;;;;;;;15.02;4.10;;;;;;;11.10;78.95;102261.22;5087267;28;20047;-73
2022/05/09 01:46:26;;;;;;;11.02;4.05;;;;;;;11.07;78.44;102267.50;5079777;28;20078;-73
2022/05/09 01:51:41;;;;;;;12.13;4.30;;;;;;;11.12;77.36;102259.69;5079722;28;20048;-74
2022/05/09 01:54:08;;;;;;;16.00;3.85;;;;;;;11.18;76.96;102260.22;5080181;28;20051;-73
2022/05/09 01:56:38;;;;;;;21.00;4.78;;;;;;;11.24;76.17;102267.84;5080739;28;20044;-74
2022/05/09 01:59:06;;;;;;;15.30;4.20;;;;;;;11.26;76.13;102259.19;5085881;28;20070;-74
2022/05/09 02:01:40;;;;;;;12.40;3.90;;;;;;;11.32;74.80;102258.53;5077347;28;20052;-74
2022/05/09 02:04:07;;;;;;;12.02;4.07;;;;;;;11.40;74.73;102259.47;5085683;28;20044;-75
2022/05/09 02:06:33;;;;;;;11.90;3.65;;;;;;;11.44;74.33;102258.38;5088678;28;20082;-74
2022/05/09 02:09:00;;;;;;;10.40;3.72;;;;;;;11.52;74.26;102267.63;5087619;28;20052;-75
2022/05/09 02:11:26;;;;;;;11.98;4.00;;;;;;;11.55;74.08;102267.72;5069068;28;20130;-75
2022/05/09 02:13:53;;;;;;;16.98;4.15;;;;;;;11.56;73.72;102263.75;5073425;28;20049;-74
2022/05/09 02:16:19;;;;;;;19.83;4.07;;;;;;;11.54;73.47;102257.78;5069953;28;20048;-73
2022/05/09 02:18:46;;;;;;;11.43;3.95;;;;;;;11.58;73.86;102255.88;5070140;28;20056;-74
2022/05/09 02:21:13;;;;;;;10.20;4.05;;;;;;;11.61;74.34;102259.91;5085078;28;20082;-75
2022/05/09 02:23:39;;;;;;;10.95;3.92;;;;;;;11.60;73.39;102259.09;5086318;28;20130;-74
2022/05/09 02:26:07;;;;;;;16.90;4.32;;;;;;;11.59;73.34;102257.50;5084941;28;20440;-73
2022/05/09 02:28:33;;;;;;;12.38;4.30;;;;;;;11.64;73.49;102254.44;5085727;28;20452;-74
2022/05/09 02:31:00;;;;;;;22.13;4.00;;;;;;;11.65;73.46;102258.81;5068260;28;20052;-74
2022/05/09 02:33:26;;;;;;;12.10;3.97;;;;;;;11.64;73.61;102254.44;5084692;28;20056;-74
2022/05/09 02:35:53;;;;;;;20.08;4.55;;;;;;;11.69;73.71;102256.09;5076268;28;20048;-73
2022/05/09 02:38:23;;;;;;;13.95;4.30;;;;;;;11.68;73.60;102257.28;5078530;28;20504;-73
2022/05/09 02:40:52;;;;;;;20.75;5.20;;;;;;;11.68;73.16;102251.75;5087589;28;20203;-73
2022/05/09 02:43:19;;;;;;;16.55;4.40;;;;;;;11.66;74.81;102257.66;5081946;28;20127;-73
2022/05/09 02:45:46;;;;;;;13.27;4.05;;;;;;;11.66;74.31;102256.84;5070072;28;20160;-74
2022/05/09 02:48:13;;;;;;;17.52;4.50;;;;;;;11.66;74.04;102257.66;5083368;28;20049;-73
2022/05/09 02:50:40;;;;;;;15.65;4.18;;;;;;;11.65;74.89;102260.78;5076815;28;20081;-74
2022/05/09 02:53:10;;;;;;;15.27;4.45;;;;;;;11.62;73.79;102251.25;5079259;28;20421;-73
2022/05/09 02:55:37;;;;;;;13.27;4.13;;;;;;;11.58;73.79;102246.75;5077207;28;20083;-75
2022/05/09 02:58:04;;;;;;;20.40;4.45;;;;;;;11.55;74.22;102250.25;5080287;28;20051;-73
2022/05/09 03:00:32;;;;;;;14.45;3.83;;;;;;;11.50;74.41;102247.78;5084932;28;20052;-74
2022/05/09 03:05:45;;;;;;;16.35;4.22;;;;;;;11.44;75.14;102249.25;5072554;28;20058;-75
2022/05/09 03:08:14;;;;;;;11.95;3.42;;;;;;;11.40;74.93;102251.97;5075464;28;20897;-74
2022/05/09 03:10:41;;;;;;;13.05;3.47;;;;;;;11.36;74.37;102241.97;5072256;28;20452;-73
2022/05/09 03:13:09;;;;;;;17.52;3.70;;;;;;;11.33;73.92;102239.91;5075475;28;20059;-73
2022/05/09 03:15:39;;;;;;;15.45;3.92;;;;;;;11.29;74.97;102242.63;5079173;28;20052;-73
2022/05/09 03:18:06;;;;;;;14.20;4.00;;;;;;;11.26;74.76;102240.59;5069641;28;20366;-74
2022/05/09 03:20:33;;;;;;;18.98;4.78;;;;;;;11.23;74.82;102240.50;5081892;28;20080;-73
2022/05/09 03:23:02;;;;;;;15.48;4.85;;;;;;;11.22;75.29;102236.13;5089235;28;20130;-73
2022/05/09 03:25:29;;;;;;;13.02;4.05;;;;;;;11.18;75.09;102235.28;5072133;28;20518;-74
2022/05/09 03:27:55;;;;;;;18.85;4.93;;;;;;;11.15;75.41;102236.81;5085034;28;20077;-75
2022/05/09 03:30:21;;;;;;;19.90;4.55;;;;;;;11.11;74.36;102240.66;5073250;28;20056;-73
2022/05/09 03:32:48;;;;;;;17.67;4.63;;;;;;;11.11;75.10;102241.47;5078459;28;20058;-74
2022/05/09 03:35:15;;;;;;;14.63;4.32;;;;;;;11.12;75.77;102237.53;5082348;28;20052;-74
2022/05/09 03:37:41;;;;;;;13.88;4.57;;;;;;;11.10;75.22;102237.09;5086540;28;20114;-73
2022/05/09 03:40:09;;;;;;;18.73;4.95;;;;;;;11.06;77.19;102235.41;5070744;28;20580;-73
2022/05/09 03:42:35;;;;;;;15.65;4.78;;;;;;;11.03;76.80;102241.69;5068095;28;20052;-72
2022/05/09 03:45:03;;;;;;;14.77;4.00;;;;;;;11.00;76.71;102234.88;5068764;28;20045;-73
2022/05/09 03:47:30;;;;;;;16.92;4.80;;;;;;;10.98;78.15;102237.25;5074396;28;20390;-74
2022/05/09 03:49:57;;;;;;;15.25;4.00;;;;;;;10.93;77.59;102228.44;5078519;28;20050;-73
2022/05/09 03:52:24;;;;;;;14.60;4.35;;;;;;;10.93;78.17;102243.06;5077607;28;20044;-74
2022/05/09 03:54:51;;;;;;;15.57;4.30;;;;;;;10.86;77.33;102231.03;5069594;28;20128;-73
2022/05/09 03:57:18;;;;;;;15.48;4.22;;;;;;;10.88;78.31;102237.00;5086809;28;20054;-73
2022/05/09 03:59:44;;;;;;;12.00;4.65;;;;;;;10.87;79.28;102238.19;5079570;28;20087;-73
2022/05/09 04:02:11;;;;;;;16.83;4.60;;;;;;;10.86;78.60;102233.81;5085136;28;20162;-73
2022/05/09 04:04:37;;;;;;;19.58;4.75;;;;;;;10.84;78.92;102231.41;5074146;28;20127;-74
2022/05/09 04:07:04;;;;;;;16.63;4.38;;;;;;;10.79;79.25;102242.75;5071600;28;20044;-74
2022/05/09 04:09:31;;;;;;;17.73;4.60;;;;;;;10.70;78.34;102239.38;5081017;28;20067;-73
2022/05/09 04:11:57;;;;;;;18.15;5.10;;;;;;;10.71;80.03;102240.19;5077008;28;20101;-75
2022/05/09 04:17:10;;;;;;;17.23;4.70;;;;;;;10.80;80.85;102241.56;5070795;28;20174;-73
2022/05/09 04:19:38;;;;;;;15.65;4.75;;;;;;;10.84;79.79;102234.16;5081445;28;20513;-72
2022/05/09 04:22:06;;;;;;;12.73;3.85;;;;;;;10.86;79.60;102236.56;5084288;28;20044;-72
2022/05/09 04:24:33;;;;;;;16.38;4.47;;;;;;;10.86;80.48;102240.13;5079171;28;20048;-72
2022/05/09 04:27:01;;;;;;;12.10;4.50;;;;;;;10.84;80.28;102233.34;5066643;28;20122;-72
2022/05/09 04:29:28;;;;;;;13.45;4.25;;;;;;;10.81;79.97;102236.84;5085155;28;20151;-73
2022/05/09 04:31:54;;;;;;;19.88;5.35;;;;;;;10.82;80.09;102232.91;5074778;28;20075;-73
2022/05/09 04:34:21;;;;;;;12.25;4.38;;;;;;;10.81;80.45;102237.66;5077902;28;20113;-73
2022/05/09 04:36:48;;;;;;;14.65;4.47;;;;;;;10.80;80.54;102240.78;5079108;28;20091;-72
2022/05/09 04:39:15;;;;;;;13.80;4.75;;;;;;;10.82;80.87;102239.25;5077584;28;20067;-74
2022/05/09 04:41:42;;;;;;;15.02;5.10;;;;;;;10.80;80.65;102236.03;5071411;28;20058;-74
2022/05/09 04:44:09;;;;;;;17.30;4.97;;;;;;;10.75;80.59;102227.22;5075265;28;20127;-73
2022/05/09 04:46:35;;;;;;;16.90;5.43;;;;;;;10.83;80.56;102234.53;5082528;28;20080;-72
2022/05/09 04:49:03;;;;;;;14.65;4.60;;;;;;;10.86;80.82;102236.56;5077865;28;20050;-73
2022/05/09 04:51:29;;;;;;;16.73;4.65;;;;;;;10.83;80.26;102238.09;5076582;28;20139;-72
2022/05/09 04:53:56;;;;;;;20.95;5.47;;;;;;;10.85;80.77;102226.66;5075375;28;20083;-73
2022/05/09 04:56:22;;;;;;;12.25;4.32;;;;;;;10.85;81.26;102232.19;5081590;28;20080;-74
2022/05/09 04:58:49;;;;;;;20.60;4.28;;;;;;;10.83;81.44;102227.00;5081479;28;20442;-75
2022/05/09 05:01:15;;;;;;;15.40;4.82;;;;;;;10.85;81.23;102230.22;5078785;28;20055;-72
2022/05/09 05:03:42;;;;;;;20.40;5.18;;;;;;;10.88;81.77;102231.47;5085655;28;20044;-72
2022/05/09 05:06:09;;;;;;;18.90;5.57;;;;;;;10.86;81.63;102231.81;5081284;28;20044;-73
2022/05/09 05:08:35;;;;;;;18.10;5.50;;;;;;;10.89;81.32;102228.34;5081292;28;20135;-74
2022/05/09 05:11:04;;;;;;;14.35;4.65;;;;;;;10.95;81.10;102231.63;5083132;28;20051;-74
2022/05/09 05:13:33;;;;;;;20.65;6.82;;;;;;;10.99;81.69;102224.19;5082945;28;20133;-72
2022/05/09 05:15:59;;;;;;;20.42;4.72;;;;;;;11.03;81.65;102223.09;5084835;28;20072;-75
2022/05/09 05:18:27;;;;;;;23.35;5.60;;;;;;;11.09;80.72;102226.38;5079539;28;20109;-73
2022/05/09 05:20:54;;;;;;;14.98;5.03;;;;;;;11.14;80.83;102226.09;5083570;28;20098;-73
2022/05/09 05:23:21;;;;;;;13.68;4.57;;;;;;;11.20;81.60;102230.19;5087051;28;20086;-73
2022/05/09 05:25:48;;;;;;;18.30;4.95;;;;;;;11.24;81.11;102229.06;5080969;28;20526;-75
2022/05/09 05:28:16;;;;;;;20.92;6.13;;;;;;;11.29;81.05;102231.56;5085470;28;20123;-72
2022/05/09 05:30:43;;;;;;;19.20;5.13;;;;;;;11.38;80.71;102225.78;5082173;28;20106;-73
2022/05/09 05:33:10;;;;;;;16.02;5.13;;;;;;;11.44;80.29;102224.31;5082045;28;20401;-73
2022/05/09 05:35:36;;;;;;;19.05;5.07;;;;;;;11.48;80.27;102223.19;5079201;28;20055;-73
2022/05/09 05:38:03;;;;;;;16.58;5.20;;;;;;;11.53;80.60;102225.69;5084957;28;20139;-73
2022/05/09 05:40:29;;;;;;;17.42;5.57;;;;;;;11.60;80.15;102230.53;5079818;28;20087;-73
2022/05/09 05:42:56;;;;;;;22.17;6.45;;;;;;;11.69;79.40;102236.69;5077667;28;20044;-78
2022/05/09 05:45:24;;;;;;;21.75;5.13;;;;;;;11.76;79.30;102234.06;5078317;28;20071;-74
2022/05/09 05:47:51;;;;;;;14.98;5.35;;;;;;;11.83;78.53;102229.44;5082209;28;20052;-75
2022/05/09 05:50:21;;;;;;;17.83;6.05;;;;;;;11.93;78.68;102239.91;5082648;28;20075;-76
2022/05/09 05:52:48;;;;;;;15.68;5.53;;;;;;;12.03;78.46;102239.31;5077680;28;20583;-73
2022/05/09 05:55:18;;;;;;;16.98;6.13;;;;;;;12.08;77.84;102235.44;5076977;28;20076;-73
2022/05/09 05:57:45;;;;;;;17.15;6.13;;;;;;;12.17;78.44;102234.00;5080203;28;20502;-76
2022/05/09 06:00:19;;;;;;;17.48;6.70;;;;;;;12.26;78.51;102236.50;5081809;28;20051;-73
2022/05/09 06:02:46;;;;;;;22.48;6.47;;;;;;;12.34;77.64;102238.22;5073482;28;20759;-73
2022/05/09 06:05:15;;;;;;;15.85;5.45;;;;;;;12.44;77.60;102227.28;5082758;28;20060;-73
2022/05/09 06:07:42;;;;;;;26.25;6.75;;;;;;;12.59;76.32;102229.09;5088085;28;20070;-73
2022/05/09 06:10:11;;;;;;;16.35;5.95;;;;;;;12.62;76.08;102230.31;5081432;28;20056;-73
2022/05/09 06:12:38;;;;;;;21.55;7.05;;;;;;;12.69;76.12;102228.44;5085682;28;20113;-73
2022/05/09 06:17:52;;;;;;;20.70;6.07;;;;;;;12.87;74.14;102223.13;5076248;28;20135;-74
2022/05/09 06:20:19;;;;;;;24.48;6.45;;;;;;;12.98;74.59;102226.84;5086446;28;20097;-74
2022/05/09 06:22:46;;;;;;;19.30;6.10;;;;;;;13.04;74.17;102222.59;5092716;28;20056;-74
2022/05/09 06:25:18;;;;;;;23.80;8.18;;;;;;;13.11;73.51;102227.44;5076659;28;20053;-75
2022/05/09 06:27:45;;;;;;;25.05;7.03;;;;;;;13.23;73.10;102218.84;5076674;28;20048;-72
2022/05/09 06:30:14;;;;;;;17.27;5.45;;;;;;;13.33;72.12;102221.75;5079481;28;20048;-73
2022/05/09 06:32:42;;;;;;;17.85;6.60;;;;;;;13.48;70.99;102219.91;5081590;28;20053;-73
2022/05/09 06:35:12;;;;;;;22.30;6.47;;;;;;;13.51;70.90;102221.94;5082874;28;20135;-71
2022/05/09 06:37:39;;;;;;;17.75;6.15;;;;;;;13.63;70.86;102233.59;5088063;28;20118;-72
2022/05/09 06:40:08;;;;;;;20.35;6.60;;;;;;;13.72;70.03;102234.09;5077540;28;20044;-71
2022/05/09 06:42:35;;;;;;;18.88;6.00;;;;;;;13.67;68.47;102230.88;5076032;28;20123;-72
2022/05/09 06:45:03;;;;;;;24.65;6.45;;;;;;;13.77;68.88;102221.81;5078426;28;20109;-73
2022/05/09 06:47:30;;;;;;;21.20;7.03;;;;;;;13.82;68.44;102219.50;5080015;28;20051;-73
2022/05/09 06:50:05;;;;;;;18.70;6.35;;;;;;;13.95;67.94;102206.91;5083091;28;21841;-73
2022/05/09 06:52:34;;;;;;;19.40;6.22;;;;;;;14.02;67.78;102206.94;5075198;28;20048;-73
2022/05/09 06:55:00;;;;;;;19.30;6.88;;;;;;;14.11;67.61;102210.19;5073903;28;20044;-74
2022/05/09 06:57:27;;;;;;;25.48;6.32;;;;;;;14.20;67.69;102207.88;5081292;28;20048;-72
2022/05/09 06:59:53;;;;;;;21.23;6.50;;;;;;;14.30;67.22;102217.53;5081037;28;20429;-73
2022/05/09 07:02:20;;;;;;;23.58;7.30;;;;;;;14.32;66.62;102218.75;5072683;28;20056;-74
2022/05/09 07:04:47;;;;;;;17.27;6.03;;;;;;;14.45;66.79;102222.81;5081190;28;20045;-73
2022/05/09 07:07:13;;;;;;;17.40;6.35;;;;;;;14.41;66.20;102208.06;5086136;28;20054;-72
2022/05/09 07:09:40;;;;;;;23.25;7.00;;;;;;;14.59;66.56;102219.31;5071199;28;20500;-72
2022/05/09 07:12:07;;;;;;;24.73;7.10;;;;;;;14.76;66.64;102219.44;5077753;28;20086;-75
2022/05/09 07:14:33;;;;;;;24.27;6.93;;;;;;;14.94;65.76;102217.53;5084475;28;20056;-72
2022/05/09 07:17:00;;;;;;;22.17;6.80;;;;;;;15.13;65.08;102213.63;5073893;28;20047;-70
2022/05/09 07:19:27;;;;;;;20.42;6.50;;;;;;;15.30;65.14;102210.88;5079865;28;20055;-70
2022/05/09 07:21:53;;;;;;;20.13;6.50;;;;;;;15.41;64.51;102219.34;5084935;28;20076;-74
2022/05/09 07:24:19;;;;;;;22.73;6.82;;;;;;;15.43;63.13;102209.38;5077802;28;20044;-73
2022/05/09 07:26:46;;;;;;;22.17;8.63;;;;;;;15.46;63.40;102208.59;5074089;28;20146;-73
2022/05/09 07:29:13;;;;;;;18.75;6.00;;;;;;;15.58;63.42;102210.22;5073771;28;20051;-74
2022/05/09 07:31:39;;;;;;;14.73;5.40;;;;;;;15.65;62.47;102201.84;5079901;28;20064;-74
2022/05/09 07:34:06;;;;;;;19.50;6.20;;;;;;;15.75;62.12;102203.88;5073420;28;20074;-74
2022/05/09 07:36:33;;;;;;;15.98;6.05;;;;;;;15.88;61.92;102201.47;5075468;28;20143;-74
2022/05/09 07:39:00;;;;;;;16.17;5.60;;;;;;;16.01;61.68;102199.88;5075293;28;20101;-73
2022/05/09 07:41:27;;;;;;;18.75;6.00;;;;;;;16.18;61.86;102202.69;5071684;28;20887;-73
2022/05/09 07:43:54;;;;;;;18.67;6.00;;;;;;;16.23;61.18;102193.88;5070428;28;20140;-74
2022/05/09 07:46:22;;;;;;;18.45;6.32;;;;;;;16.44;61.13;102191.09;5082848;28;20051;-74
2022/05/09 07:49:09;;;;;;;19.70;6.30;;;;;;;16.52;60.12;102192.69;5077595;28;20044;-74
2022/05/09 07:51:37;;;;;;;17.35;5.75;;;;;;;16.59;60.15;102206.66;5072752;28;20060;-75
2022/05/09 07:54:05;;;;;;;17.38;5.95;;;;;;;16.71;60.43;102199.84;5083065;28;20044;-73
2022/05/09 07:56:38;;;;;;;14.35;5.90;;;;;;;16.87;60.79;102191.81;5083967;28;20048;-73
2022/05/09 07:59:05;;;;;;;17.13;5.57;;;;;;;17.00;59.50;102196.53;5089150;28;20047;-74
2022/05/09 08:01:31;;;;;;;16.75;5.68;;;;;;;17.12;59.27;102204.47;5076332;28;20087;-73
2022/05/09 08:04:04;;;;;;;17.27;6.03;;;;;;;17.24;59.30;102197.59;5082572;28;20823;-73
2022/05/09 08:06:31;;;;;;;21.52;6.68;;;;;;;17.39;59.09;102199.16;5078668;28;20044;-73
2022/05/09 08:08:58;;;;;;;17.45;5.80;;;;;;;17.50;58.72;102195.09;5082275;28;20072;-74
2022/05/09 08:11:25;;;;;;;16.15;5.80;;;;;;;17.61;58.75;102187.44;5080030;28;20084;-74
2022/05/09 08:13:51;;;;;;;26.27;8.48;;;;;;;17.75;58.72;102189.31;5072836;28;20096;-74
2022/05/09 08:16:20;;;;;;;23.98;6.78;;;;;;;17.87;58.54;102188.84;5082221;28;20048;-73
2022/05/09 08:18:48;;;;;;;18.65;5.90;;;;;;;18.05;58.59;102183.88;5078950;28;20146;-74
2022/05/09 08:21:14;;;;;;;18.98;5.93;;;;;;;18.18;57.83;102182.16;5084109;28;20044;-75
2022/05/09 08:23:45;;;;;;;15.52;6.50;;;;;;;18.31;57.07;102186.06;5080797;28;20055;-72
2022/05/09 08:26:12;;;;;;;16.13;5.43;;;;;;;18.47;57.25;102188.34;5084983;28;20048;-72
2022/05/09 08:28:39;;;;;;;15.40;5.10;;;;;;;18.53;57.40;102186.69;5080248;28;20063;-73
2022/05/09 08:31:06;;;;;;;17.60;5.82;;;;;;;18.60;56.79;102186.59;5073925;28;20101;-73
2022/05/09 08:33:33;;;;;;;14.57;5.10;;;;;;;18.72;56.72;102189.66;5084381;28;20553;-73
2022/05/09 08:36:03;;;;;;;16.23;5.80;;;;;;;18.84;56.22;102191.94;5075154;28;20397;-72
2022/05/09 08:38:30;;;;;;;18.65;5.70;;;;;;;18.94;55.75;102188.22;5070135;28;20071;-72
2022/05/09 08:41:00;;;;;;;16.30;5.47;;;;;;;19.07;56.37;102188.44;5073906;28;20135;-69
2022/05/09 08:43:55;;;;;;;17.20;5.78;;;;;;;19.16;55.88;102178.28;5072323;28;20080;-71
2022/05/09 08:46:59;;;;;;;16.67;5.38;;;;;;;19.40;55.10;102191.22;5077034;28;20074;-75
2022/05/09 08:49:58;;;;;;;13.95;5.20;;;;;;;19.58;54.23;102185.34;5074054;28;20066;-75
2022/05/09 08:52:34;;;;;;;18.63;5.95;;;;;;;19.77;54.58;102190.25;5077332;28;20063;-75
2022/05/09 08:55:05;;;;;;;21.02;7.15;;;;;;;19.82;53.46;102190.59;5074392;28;20123;-73
2022/05/09 08:58:05;;;;;;;19.35;5.57;;;;;;;19.92;53.19;102183.19;5065384;28;20055;-74
2022/05/09 09:00:33;;;;;;;36.97;8.82;;;;;;;20.01;53.08;102181.44;5048331;28;20062;-73
2022/05/09 09:03:17;;;;;;;21.55;6.43;;;;;;;20.16;52.74;102187.63;5065512;28;20054;-74
2022/05/09 09:05:46;;;;;;;16.85;6.50;;;;;;;20.24;52.55;102181.47;5077242;28;20424;-74
2022/05/09 09:08:25;;;;;;;17.95;6.28;;;;;;;20.38;52.83;102180.41;5076632;28;20049;-73
2022/05/09 09:11:16;;;;;;;15.80;5.78;;;;;;;20.23;51.57;102179.09;5073730;28;20044;-74
2022/05/09 09:13:48;;;;;;;21.80;6.45;;;;;;;20.41;52.54;102178.78;5072629;28;20041;-73
2022/05/09 09:16:37;;;;;;;17.58;6.53;;;;;;;20.59;52.76;102170.78;5080321;28;20048;-74
2022/05/09 09:19:26;;;;;;;17.17;6.50;;;;;;;20.79;52.55;102169.56;5067114;28;20064;-74
2022/05/09 09:22:06;;;;;;;15.55;5.80;;;;;;;20.93;52.03;102166.50;5070551;28;20079;-73
2022/05/09 09:24:54;;;;;;;17.65;5.97;;;;;;;21.01;51.77;102170.75;5077983;28;20099;-74
2022/05/09 09:27:33;;;;;;;15.38;6.45;;;;;;;21.15;51.24;102161.19;5078606;28;20051;-74
2022/05/09 09:30:10;;;;;;;20.20;7.38;;;;;;;21.30;51.05;102174.53;5072559;28;20070;-74
2022/05/09 09:32:43;;;;;;;15.75;6.32;;;;;;;21.53;50.91;102168.75;5065419;28;20052;-74
2022/05/09 09:35:26;;;;;;;15.55;5.95;;;;;;;21.77;50.55;102163.81;5077813;28;20044;-76
2022/05/09 09:38:00;;;;;;;17.83;7.55;;;;;;;21.91;49.08;102160.63;5080685;28;20141;-76
2022/05/09 09:40:26;;;;;;;20.42;6.40;;;;;;;21.90;49.32;102162.66;5071695;28;20048;-73
2022/05/09 09:42:55;;;;;;;19.58;6.75;;;;;;;22.01;49.44;102156.75;5067642;28;21725;-73
2022/05/09 09:45:32;;;;;;;13.90;4.78;;;;;;;21.91;48.21;102160.63;5076562;28;20492;-73
2022/05/09 09:48:08;;;;;;;14.65;5.97;;;;;;;22.04;48.79;102159.47;5077079;28;20050;-74
2022/05/09 09:50:36;;;;;;;17.30;7.32;;;;;;;22.12;48.85;102155.25;5086290;28;20055;-75
2022/05/09 09:53:03;;;;;;;14.80;6.28;;;;;;;22.25;48.42;102155.31;5081619;28;20139;-73
2022/05/09 09:55:36;;;;;;;18.58;6.95;;;;;;;22.34;48.67;102147.03;5077026;28;20045;-74
2022/05/09 09:58:26;;;;;;;19.05;5.97;;;;;;;22.33;47.61;102145.41;5096202;28;20173;-73
2022/05/09 10:01:13;;;;;;;13.98;6.22;;;;;;;22.50;48.17;102147.00;5080122;28;20535;-74
2022/05/09 10:03:46;;;;;;;16.33;6.38;;;;;;;22.57;47.80;102144.78;5074851;28;20056;-76
2022/05/09 10:06:17;;;;;;;15.65;6.43;;;;;;;22.65;48.04;102131.28;5083505;28;20055;-74
2022/05/09 10:08:45;;;;;;;17.70;6.97;;;;;;;22.55;47.78;102129.53;5080538;28;20462;-75
2022/05/09 10:11:12;;;;;;;19.60;6.75;;;;;;;22.65;48.22;102131.28;5081783;28;20052;-75
2022/05/09 10:13:45;;;;;;;14.70;6.20;;;;;;;22.76;47.51;102126.09;5072021;28;20467;-73
2022/05/09 10:16:25;;;;;;;11.70;5.30;;;;;;;22.72;47.00;102131.06;5078443;28;20078;-75
2022/05/09 10:18:51;;;;;;;14.27;5.80;;;;;;;22.76;47.92;102128.91;5077980;28;20082;-74
2022/05/09 10:24:47;;;;;;;18.20;6.18;;;;;;;22.93;47.41;102129.63;5076999;28;20152;-72
2022/05/09 10:27:21;;;;;;;13.57;5.95;;;;;;;23.07;46.95;102124.34;5074427;28;20056;-74
2022/05/09 10:29:50;;;;;;;16.45;7.25;;;;;;;23.21;46.61;102109.03;5071313;28;20131;-74
2022/05/09 10:32:23;;;;;;;16.50;5.72;;;;;;;23.37;47.11;102106.91;5082372;28;20051;-73
2022/05/09 10:35:24;;;;;;;14.85;6.70;;;;;;;23.72;46.31;102102.13;5076904;28;20458;-70
2022/05/09 10:38:00;;;;;;;14.13;6.15;;;;;;;23.91;45.56;102103.88;5074564;28;20041;-70
2022/05/09 10:40:30;;;;;;;17.65;6.28;;;;;;;23.98;45.55;102103.66;5082466;28;20063;-72
2022/05/09 10:43:05;;;;;;;18.30;6.72;;;;;;;24.29;45.28;102108.19;5078354;28;20127;-73
2022/05/09 10:45:41;;;;;;;12.73;6.15;;;;;;;24.46;44.63;102100.31;5078796;28;20048;-71
2022/05/09 10:48:23;;;;;;;14.00;6.28;;;;;;;24.53;43.98;102103.66;5073460;28;20062;-71
2022/05/09 10:50:56;;;;;;;15.30;6.18;;;;;;;24.61;44.30;102095.72;5079105;28;20051;-71
2022/05/09 10:53:31;;;;;;;17.67;6.47;;;;;;;24.60;43.77;102094.91;5081026;28;20056;-71
2022/05/09 10:56:06;;;;;;;14.27;5.95;;;;;;;24.57;43.36;102086.56;5070879;28;20197;-71
2022/05/09 10:58:47;;;;;;;15.27;6.18;;;;;;;24.40;43.38;102090.84;5076598;28;20150;-71
2022/05/09 11:01:19;;;;;;;14.05;5.55;;;;;;;24.50;43.14;102090.44;5075390;28;20121;-71
2022/05/09 11:03:46;;;;;;;13.63;5.95;;;;;;;24.51;43.08;102089.22;5075632;28;20059;-72
2022/05/09 11:07:10;;;;;;;16.05;6.05;;;;;;;24.43;43.19;102076.56;5084385;28;20087;-71
2022/05/09 11:09:37;;;;;;;15.10;6.53;;;;;;;24.87;43.68;102074.50;5055469;28;20046;-70
2022/05/09 11:12:03;;;;;;;15.88;6.50;;;;;;;25.12;43.58;102068.66;5065342;28;20128;-75
2022/05/09 11:14:38;;;;;;;15.48;7.15;;;;;;;25.33;43.23;102061.38;5058258;28;20127;-73
2022/05/09 11:17:31;;;;;;;15.57;6.63;;;;;;;25.43;42.17;102054.47;5061237;28;20256;-75
2022/05/09 11:20:26;;;;;;;14.85;6.45;;;;;;;25.78;41.19;102055.81;5062569;28;20084;-71
2022/05/09 11:23:07;;;;;;;16.55;6.30;;;;;;;25.93;42.05;102051.09;5045300;28;20063;-70
2022/05/09 11:26:02;;;;;;;13.45;5.80;;;;;;;25.47;40.34;102049.47;5037546;28;20088;-72
2022/05/09 11:28:31;;;;;;;12.20;5.67;;;;;;;25.40;41.80;102049.72;5054069;28;20083;-73
2022/05/09 11:31:20;;;;;;;14.52;5.82;;;;;;;24.73;41.99;102052.41;5065358;28;20067;-70
2022/05/09 11:33:58;;;;;;;15.27;6.60;;;;;;;24.83;42.11;102045.53;5063148;28;20052;-71
2022/05/09 11:36:43;;;;;;;14.27;6.20;;;;;;;25.17;42.10;102034.84;5055501;28;20435;-71
2022/05/09 11:39:22;;;;;;;12.25;5.10;;;;;;;25.02;42.17;102033.88;5074395;28;20072;-73
2022/05/09 11:43:27;;;;;;;4.28;1.55;;;;;;;25.01;41.42;102040.75;5083530;28;20130;-75
2022/05/09 11:45:09;;;;;;;9.82;3.80;;;;;;;25.00;40.57;102032.72;5079246;28;20056;-73
2022/05/09 11:48:15;;;;;;;14.63;6.80;;;;;;;25.21;40.65;102033.91;5078366;28;20056;-73
2022/05/09 11:51:03;;;;;;;14.02;4.72;;;;;;;25.47;39.75;102038.91;5070721;28;20060;-71